createdAt,value
2022-08-30T00:00:16.032Z,101543.53
2022-08-30T00:02:44.130Z,101556.03
2022-08-30T00:05:12.067Z,101556.97
2022-08-30T00:07:39.675Z,101547.09
2022-08-30T00:10:08.286Z,101552.97
2022-08-30T00:12:37.223Z,101551.91
2022-08-30T00:15:07.061Z,101557.75
2022-08-30T00:17:36.908Z,101556.53
2022-08-30T00:20:05.507Z,101557.75
2022-08-30T00:22:33.707Z,101552.72
2022-08-30T00:25:01.610Z,101547.31
2022-08-30T00:27:29.251Z,101546.28
2022-08-30T00:29:58.627Z,101547.50
2022-08-30T00:32:26.251Z,101545.88
2022-08-30T00:34:54.869Z,101546.06
2022-08-30T00:37:23.303Z,101550.50
2022-08-30T00:39:51.348Z,101547.50
2022-08-30T00:42:20.232Z,101538.59
2022-08-30T00:44:48.347Z,101548.06
2022-08-30T00:47:18.358Z,101543.31
2022-08-30T00:49:48.150Z,101542.38
2022-08-30T00:52:16.586Z,101546.31
2022-08-30T00:54:45.703Z,101549.75
2022-08-30T00:57:14.960Z,101550.09
2022-08-30T00:59:44.435Z,101547.19
2022-08-30T01:02:13.124Z,101550.78
2022-08-30T01:04:44.447Z,101545.56
2022-08-30T01:07:12.227Z,101542.63
2022-08-30T01:09:40.167Z,101550.59
2022-08-30T01:12:08.913Z,101541.19
2022-08-30T01:14:36.551Z,101547.53
2022-08-30T01:17:06.721Z,101544.13
2022-08-30T01:19:40.090Z,101554.38
2022-08-30T01:22:17.869Z,101551.19
2022-08-30T01:24:47.642Z,101549.75
2022-08-30T01:27:15.570Z,101556.09
2022-08-30T01:29:44.963Z,101556.75
2022-08-30T01:32:21.049Z,101562.50
2022-08-30T01:34:48.984Z,101563.59
2022-08-30T01:37:17.746Z,101561.75
2022-08-30T01:39:48.026Z,101561.13
2022-08-30T01:42:17.292Z,101552.47
2022-08-30T01:44:44.984Z,101562.25
2022-08-30T01:47:12.635Z,101557.53
2022-08-30T01:49:41.653Z,101567.22
2022-08-30T01:52:09.356Z,101569.44
2022-08-30T01:54:40.134Z,101564.41
2022-08-30T01:57:11.229Z,101572.19
2022-08-30T01:59:40.397Z,101571.69
2022-08-30T02:02:08.362Z,101569.09
2022-08-30T02:04:36.695Z,101569.44
2022-08-30T02:07:04.669Z,101566.19
2022-08-30T02:09:32.272Z,101567.41
2022-08-30T02:11:59.879Z,101567.53
2022-08-30T02:14:28.917Z,101566.00
2022-08-30T02:16:56.568Z,101566.00
2022-08-30T02:19:24.261Z,101572.16
2022-08-30T02:21:51.932Z,101564.44
2022-08-30T02:24:19.528Z,101572.69
2022-08-30T02:26:47.177Z,101577.44
2022-08-30T02:29:14.777Z,101576.28
2022-08-30T02:31:43.815Z,101570.44
2022-08-30T02:34:11.471Z,101563.59
2022-08-30T02:36:40.697Z,101577.19
2022-08-30T02:39:08.991Z,101572.84
2022-08-30T02:41:38.180Z,101584.84
2022-08-30T02:44:05.878Z,101573.56
2022-08-30T02:46:34.537Z,101573.78
2022-08-30T02:49:29.999Z,101581.59
2022-08-30T02:51:51.798Z,101575.94
2022-08-30T02:54:20.568Z,101576.81
2022-08-30T02:56:48.526Z,101565.69
2022-08-30T02:59:16.308Z,101566.75
2022-08-30T03:01:43.967Z,101562.41
2022-08-30T03:04:13.109Z,101573.19
2022-08-30T03:06:40.686Z,101564.28
2022-08-30T03:09:08.703Z,101566.00
2022-08-30T03:11:37.035Z,101567.53
2022-08-30T03:14:05.315Z,101565.81
2022-08-30T03:16:32.978Z,101562.41
2022-08-30T03:19:00.627Z,101568.03
2022-08-30T03:21:29.593Z,101563.44
2022-08-30T03:23:57.194Z,101565.41
2022-08-30T03:26:24.787Z,101566.97
2022-08-30T03:28:52.376Z,101572.72
2022-08-30T03:31:20.078Z,101572.09
2022-08-30T03:33:47.828Z,101574.47
2022-08-30T03:36:15.600Z,101582.88
2022-08-30T03:38:44.510Z,101576.59
2022-08-30T03:41:12.307Z,101579.09
2022-08-30T03:43:40.716Z,101579.78
2022-08-30T03:46:09.332Z,101577.91
2022-08-30T03:48:36.918Z,101585.44
2022-08-30T03:51:06.123Z,101585.69
2022-08-30T03:53:34.010Z,101579.78
2022-08-30T03:56:03.383Z,101577.28
2022-08-30T03:58:30.965Z,101579.44
2022-08-30T04:00:58.635Z,101586.25
2022-08-30T04:03:26.492Z,101586.50
2022-08-30T04:05:54.161Z,101583.50
2022-08-30T04:08:21.971Z,101578.19
2022-08-30T04:10:49.880Z,101578.50
2022-08-30T04:13:18.821Z,101574.94
2022-08-30T04:15:46.689Z,101573.91
2022-08-30T04:18:14.278Z,101573.13
2022-08-30T04:20:41.880Z,101570.53
2022-08-30T04:23:09.543Z,101572.69
2022-08-30T04:25:38.150Z,101574.09
2022-08-30T04:28:06.663Z,101581.09
2022-08-30T04:30:35.764Z,101574.56
2022-08-30T04:33:03.337Z,101583.75
2022-08-30T04:35:31.978Z,101586.31
2022-08-30T04:37:59.794Z,101578.53
2022-08-30T04:40:27.873Z,101586.84
2022-08-30T04:42:56.205Z,101592.16
2022-08-30T04:45:26.382Z,101583.59
2022-08-30T04:47:56.519Z,101589.06
2022-08-30T04:50:25.267Z,101593.22
2022-08-30T04:52:52.881Z,101585.81
2022-08-30T04:55:20.942Z,101591.78
2022-08-30T04:57:48.838Z,101591.31
2022-08-30T05:00:17.070Z,101595.53
2022-08-30T05:02:44.735Z,101603.69
2022-08-30T05:05:31.519Z,101602.81
2022-08-30T05:07:59.422Z,101599.97
2022-08-30T05:10:27.575Z,101605.09
2022-08-30T05:12:55.787Z,101607.97
2022-08-30T05:15:23.814Z,101605.16
2022-08-30T05:17:51.542Z,101617.47
2022-08-30T05:20:20.464Z,101610.16
2022-08-30T05:22:53.524Z,101614.25
2022-08-30T05:25:23.221Z,101619.53
2022-08-30T05:27:50.926Z,101620.31
2022-08-30T05:30:19.167Z,101626.09
2022-08-30T05:32:46.907Z,101624.22
2022-08-30T05:35:15.648Z,101622.19
2022-08-30T05:37:45.763Z,101628.59
2022-08-30T05:40:17.415Z,101627.81
2022-08-30T05:42:45.430Z,101635.59
2022-08-30T05:45:13.944Z,101633.31
2022-08-30T05:47:42.126Z,101630.84
2022-08-30T05:50:10.520Z,101629.97
2022-08-30T05:52:38.272Z,101634.84
2022-08-30T05:55:08.628Z,101635.22
2022-08-30T05:57:37.194Z,101630.91
2022-08-30T06:00:08.704Z,101637.00
2022-08-30T06:02:36.281Z,101631.53
2022-08-30T06:05:05.136Z,101632.75
2022-08-30T06:07:33.349Z,101633.44
2022-08-30T06:10:01.250Z,101643.63
2022-08-30T06:12:30.227Z,101632.06
2022-08-30T06:14:57.791Z,101630.78
2022-08-30T06:17:25.407Z,101636.91
2022-08-30T06:19:53.397Z,101624.00
2022-08-30T06:22:21.001Z,101630.06
2022-08-30T06:25:03.445Z,101626.00
2022-08-30T06:27:32.404Z,101621.78
2022-08-30T06:30:00.006Z,101616.44
2022-08-30T06:32:27.723Z,101611.09
2022-08-30T06:34:55.322Z,101620.28
2022-08-30T06:37:29.857Z,101620.47
2022-08-30T06:39:58.343Z,101620.06
2022-08-30T06:42:31.588Z,101619.53
2022-08-30T06:45:00.874Z,101617.47
2022-08-30T06:47:28.996Z,101618.50
2022-08-30T06:49:56.795Z,101614.41
2022-08-30T06:52:24.806Z,101615.94
2022-08-30T06:54:53.606Z,101617.81
2022-08-30T06:57:21.156Z,101621.41
2022-08-30T06:59:48.771Z,101622.78
2022-08-30T07:02:17.768Z,101625.34
2022-08-30T07:04:45.387Z,101624.81
2022-08-30T07:07:12.919Z,101625.13
2022-08-30T07:09:43.204Z,101623.06
2022-08-30T07:12:11.865Z,101622.03
2022-08-30T07:14:39.695Z,101636.78
2022-08-30T07:17:32.486Z,101627.72
2022-08-30T07:20:03.013Z,101639.44
2022-08-30T07:22:30.983Z,101633.06
2022-08-30T07:24:58.579Z,101637.25
2022-08-30T07:27:26.192Z,101633.09
2022-08-30T07:29:53.801Z,101648.38
2022-08-30T07:32:21.359Z,101631.00
2022-08-30T07:34:48.927Z,101645.94
2022-08-30T07:37:20.771Z,101645.44
2022-08-30T07:39:48.387Z,101641.16
2022-08-30T07:42:16.065Z,101650.97
2022-08-30T07:44:43.799Z,101644.59
2022-08-30T07:47:11.429Z,101646.78
2022-08-30T07:49:39.038Z,101644.50
2022-08-30T07:52:06.691Z,101638.50
2022-08-30T07:54:35.666Z,101635.91
2022-08-30T07:57:03.241Z,101641.06
2022-08-30T07:59:33.058Z,101648.00
2022-08-30T08:02:03.647Z,101649.41
2022-08-30T08:04:31.538Z,101642.78
2022-08-30T08:06:59.466Z,101645.78
2022-08-30T08:09:27.215Z,101650.06
2022-08-30T08:11:56.151Z,101648.19
2022-08-30T08:14:24.167Z,101649.41
2022-08-30T08:16:51.750Z,101650.13
2022-08-30T08:19:19.630Z,101642.88
2022-08-30T08:21:48.641Z,101641.16
2022-08-30T08:24:17.971Z,101626.69
2022-08-30T08:26:45.650Z,101641.13
2022-08-30T08:29:14.680Z,101639.56
2022-08-30T08:31:42.953Z,101636.69
2022-08-30T08:34:11.627Z,101640.75
2022-08-30T08:36:39.417Z,101643.72
2022-08-30T08:39:08.600Z,101637.53
2022-08-30T08:41:43.228Z,101633.97
2022-08-30T08:44:19.245Z,101638.53
2022-08-30T08:46:52.323Z,101628.69
2022-08-30T08:49:20.043Z,101629.03
2022-08-30T08:52:05.380Z,101626.88
2022-08-30T08:54:38.112Z,101623.25
2022-08-30T08:57:05.757Z,101626.69
2022-08-30T08:59:35.073Z,101621.13
2022-08-30T09:02:17.294Z,101625.06
2022-08-30T09:04:45.304Z,101637.75
2022-08-30T09:07:17.410Z,101627.75
2022-08-30T09:09:45.226Z,101631.16
2022-08-30T09:12:13.242Z,101624.53
2022-08-30T09:14:46.525Z,101626.47
2022-08-30T09:17:15.608Z,101619.97
2022-08-30T09:19:45.247Z,101624.63
2022-08-30T09:22:18.372Z,101629.09
2022-08-30T09:24:48.299Z,101617.00
2022-08-30T09:27:24.044Z,101624.84
2022-08-30T09:30:02.782Z,101616.06
2022-08-30T09:32:36.268Z,101619.34
2022-08-30T09:35:06.260Z,101625.31
2022-08-30T09:37:38.648Z,101627.28
2022-08-30T09:40:13.080Z,101620.81
2022-08-30T09:42:40.760Z,101625.41
2022-08-30T09:45:21.185Z,101621.16
2022-08-30T09:47:48.770Z,101613.41
2022-08-30T09:50:19.770Z,101621.97
2022-08-30T09:53:01.115Z,101618.47
2022-08-30T09:55:50.462Z,101617.44
2022-08-30T09:58:29.782Z,101617.59
2022-08-30T10:01:02.848Z,101612.75
2022-08-30T10:03:40.221Z,101612.09
2022-08-30T10:06:14.039Z,101595.31
2022-08-30T10:08:53.128Z,101610.78
2022-08-30T10:11:26.887Z,101593.69
2022-08-30T10:14:18.666Z,101593.31
2022-08-30T10:16:54.483Z,101591.50
2022-08-30T10:19:38.491Z,101586.91
2022-08-30T10:22:09.822Z,101587.28
2022-08-30T10:24:41.304Z,101592.13
2022-08-30T10:27:16.063Z,101583.63
2022-08-30T10:29:47.694Z,101592.84
2022-08-30T10:32:21.797Z,101593.22
2022-08-30T10:34:52.680Z,101585.84
2022-08-30T10:37:22.867Z,101582.69
2022-08-30T10:39:52.376Z,101576.50
2022-08-30T10:42:26.560Z,101583.09
2022-08-30T10:44:56.924Z,101588.16
2022-08-30T10:47:31.533Z,101589.75
2022-08-30T10:50:07.200Z,101587.56
2022-08-30T10:52:39.774Z,101577.97
2022-08-30T10:55:11.450Z,101570.06
2022-08-30T10:57:42.887Z,101574.41
2022-08-30T11:00:13.853Z,101573.72
2022-08-30T11:03:27.149Z,101573.94
2022-08-30T11:06:04.493Z,101575.84
2022-08-30T11:08:45.592Z,101564.22
2022-08-30T11:11:20.656Z,101578.16
2022-08-30T11:13:49.685Z,101560.75
2022-08-30T11:16:19.103Z,101573.19
2022-08-30T11:18:51.205Z,101559.53
2022-08-30T11:21:27.652Z,101558.81
2022-08-30T11:24:01.235Z,101563.19
2022-08-30T11:26:58.226Z,101557.84
2022-08-30T11:29:33.454Z,101543.69
2022-08-30T11:32:25.009Z,101549.38
2022-08-30T11:34:58.191Z,101561.34
2022-08-30T11:37:40.906Z,101556.22
2022-08-30T11:40:14.238Z,101549.88
2022-08-30T11:42:46.518Z,101546.56
2022-08-30T11:45:44.369Z,101554.41
2022-08-30T11:48:40.316Z,101546.47
2022-08-30T11:52:28.094Z,101542.56
2022-08-30T11:55:10.140Z,101537.75
2022-08-30T11:57:42.897Z,101544.09
2022-08-30T12:00:13.736Z,101541.31
2022-08-30T12:02:48.441Z,101533.53
2022-08-30T12:05:51.798Z,101521.97
2022-08-30T12:08:57.964Z,101530.66
2022-08-30T12:11:57.644Z,101533.75
2022-08-30T12:14:48.868Z,101531.22
2022-08-30T12:17:40.329Z,101533.75
2022-08-30T12:20:17.617Z,101531.97
2022-08-30T12:22:45.547Z,101518.88
2022-08-30T12:25:21.499Z,101518.03
2022-08-30T12:27:49.536Z,101522.38
2022-08-30T12:30:26.504Z,101527.22
2022-08-30T12:32:54.683Z,101521.59
2022-08-30T12:35:25.556Z,101527.09
2022-08-30T12:37:59.194Z,101520.84
2022-08-30T12:40:27.760Z,101514.78
2022-08-30T12:42:57.380Z,101505.09
2022-08-30T12:45:29.347Z,101506.41
2022-08-30T12:47:58.964Z,101512.13
2022-08-30T12:50:29.663Z,101495.16
2022-08-30T12:52:59.818Z,101493.44
2022-08-30T12:55:30.095Z,101492.53
2022-08-30T12:58:01.366Z,101486.66
2022-08-30T13:00:32.133Z,101478.50
2022-08-30T13:03:01.664Z,101479.34
2022-08-30T13:05:37.387Z,101477.03
2022-08-30T13:08:11.563Z,101481.72
2022-08-30T13:10:54.296Z,101472.06
2022-08-30T13:13:31.497Z,101470.81
2022-08-30T13:16:08.551Z,101459.50
2022-08-30T13:18:36.320Z,101461.72
2022-08-30T13:21:26.697Z,101468.81
2022-08-30T13:23:58.383Z,101464.44
2022-08-30T13:26:27.599Z,101469.53
2022-08-30T13:28:57.737Z,101461.66
2022-08-30T13:31:29.101Z,101462.09
2022-08-30T13:33:57.952Z,101456.41
2022-08-30T13:36:28.778Z,101449.09
2022-08-30T13:38:56.659Z,101453.34
2022-08-30T13:41:25.995Z,101455.44
2022-08-30T13:44:14.259Z,101456.31
2022-08-30T13:46:53.466Z,101452.78
2022-08-30T13:52:21.087Z,101449.94
2022-08-30T13:54:50.308Z,101445.69
2022-08-30T13:57:53.440Z,101445.44
2022-08-30T14:00:12.232Z,101440.38
2022-08-30T14:02:46.309Z,101440.63
2022-08-30T14:05:31.047Z,101438.06
2022-08-30T14:08:03.510Z,101432.16
2022-08-30T14:10:32.559Z,101440.28
2022-08-30T14:13:08.551Z,101440.91
2022-08-30T14:15:38.707Z,101434.97
2022-08-30T14:18:08.786Z,101436.22
2022-08-30T14:20:38.774Z,101440.38
2022-08-30T14:23:10.517Z,101428.75
2022-08-30T14:25:40.219Z,101433.25
2022-08-30T14:28:09.633Z,101436.41
2022-08-30T14:30:38.757Z,101428.19
2022-08-30T14:33:08.418Z,101430.22
2022-08-30T14:35:36.588Z,101428.97
2022-08-30T14:38:04.455Z,101432.16
2022-08-30T14:40:33.912Z,101437.81
2022-08-30T14:43:02.375Z,101432.47
2022-08-30T14:45:29.939Z,101427.03
2022-08-30T14:47:57.595Z,101429.28
2022-08-30T14:50:27.955Z,101425.16
2022-08-30T14:52:56.756Z,101428.13
2022-08-30T14:55:24.379Z,101421.97
2022-08-30T14:57:52.144Z,101414.19
2022-08-30T15:00:20.282Z,101419.69
2022-08-30T15:02:47.883Z,101421.56
2022-08-30T15:05:16.103Z,101417.75
2022-08-30T15:07:45.554Z,101415.03
2022-08-30T15:10:14.739Z,101413.16
2022-08-30T15:12:42.359Z,101415.69
2022-08-30T15:15:11.447Z,101411.47
2022-08-30T15:17:39.021Z,101403.13
2022-08-30T15:20:10.363Z,101406.47
2022-08-30T15:22:38.335Z,101399.25
2022-08-30T15:25:08.292Z,101400.78
2022-08-30T15:27:37.121Z,101404.16
2022-08-30T15:30:05.675Z,101400.91
2022-08-30T15:32:33.896Z,101399.94
2022-08-30T15:35:01.651Z,101396.81
2022-08-30T15:37:30.902Z,101389.63
2022-08-30T15:39:58.951Z,101390.28
2022-08-30T15:42:28.288Z,101389.22
2022-08-30T15:44:56.129Z,101386.63
2022-08-30T15:47:24.618Z,101377.00
2022-08-30T15:49:55.979Z,101375.75
2022-08-30T15:52:24.003Z,101380.72
2022-08-30T15:54:51.618Z,101377.59
2022-08-30T15:57:19.639Z,101371.63
2022-08-30T15:59:48.582Z,101370.81
2022-08-30T16:02:16.797Z,101376.19
2022-08-30T16:04:44.582Z,101371.34
2022-08-30T16:07:14.552Z,101363.34
2022-08-30T16:09:42.147Z,101368.81
2022-08-30T16:12:10.215Z,101371.94
2022-08-30T16:14:37.901Z,101369.16
2022-08-30T16:17:06.887Z,101359.22
2022-08-30T16:19:34.668Z,101356.56
2022-08-30T16:22:02.779Z,101358.94
2022-08-30T16:24:30.560Z,101356.81
2022-08-30T16:26:58.431Z,101355.13
2022-08-30T16:29:26.102Z,101363.03
2022-08-30T16:31:53.730Z,101364.59
2022-08-30T16:34:22.863Z,101365.44
2022-08-30T16:36:50.840Z,101367.13
2022-08-30T16:39:18.963Z,101367.13
2022-08-30T16:41:48.258Z,101357.53
2022-08-30T16:44:17.769Z,101359.53
2022-08-30T16:46:53.245Z,101352.47
2022-08-30T16:49:23.380Z,101354.44
2022-08-30T16:51:53.642Z,101349.28
2022-08-30T16:54:22.155Z,101349.53
2022-08-30T16:56:49.878Z,101345.19
2022-08-30T16:59:17.750Z,101339.38
2022-08-30T17:01:48.034Z,101344.19
2022-08-30T17:04:19.288Z,101344.19
2022-08-30T17:06:50.053Z,101346.69
2022-08-30T17:09:18.451Z,101343.56
2022-08-30T17:11:46.953Z,101354.09
2022-08-30T17:14:14.729Z,101348.56
2022-08-30T17:16:42.351Z,101345.44
2022-08-30T17:19:12.911Z,101346.69
2022-08-30T17:21:40.527Z,101347.03
2022-08-30T17:24:09.575Z,101349.63
2022-08-30T17:26:38.049Z,101350.47
2022-08-30T17:29:06.427Z,101350.88
2022-08-30T17:31:35.527Z,101354.06
2022-08-30T17:34:05.698Z,101365.59
2022-08-30T17:36:35.312Z,101362.88
2022-08-30T17:39:11.075Z,101377.84
2022-08-30T17:41:45.212Z,101363.72
2022-08-30T17:44:18.649Z,101370.44
2022-08-30T17:46:46.349Z,101369.00
2022-08-30T17:49:14.031Z,101374.88
2022-08-30T17:51:43.434Z,101377.84
2022-08-30T17:54:11.896Z,101386.09
2022-08-30T17:56:41.295Z,101387.13
2022-08-30T17:59:09.282Z,101392.72
2022-08-30T18:01:37.267Z,101397.75
2022-08-30T18:04:06.269Z,101394.97
2022-08-30T18:06:34.195Z,101391.09
2022-08-30T18:09:02.132Z,101395.25
2022-08-30T18:11:30.171Z,101399.75
2022-08-30T18:13:59.483Z,101407.41
2022-08-30T18:16:27.217Z,101412.06
2022-08-30T18:18:56.936Z,101413.41
2022-08-30T18:21:25.355Z,101421.78
2022-08-30T18:23:53.106Z,101420.34
2022-08-30T18:26:22.203Z,101428.25
2022-08-30T18:28:51.913Z,101422.94
2022-08-30T18:31:20.948Z,101425.13
2022-08-30T18:33:48.948Z,101434.13
2022-08-30T18:36:16.730Z,101436.53
2022-08-30T18:38:45.309Z,101442.72
2022-08-30T18:41:15.179Z,101447.69
2022-08-30T18:43:43.171Z,101445.59
2022-08-30T18:46:14.836Z,101449.09
2022-08-30T18:48:44.602Z,101450.91
2022-08-30T18:51:12.862Z,101452.66
2022-08-30T18:53:40.694Z,101452.25
2022-08-30T18:56:08.599Z,101451.53
2022-08-30T18:58:38.927Z,101459.28
2022-08-30T19:01:07.004Z,101457.47
2022-08-30T19:03:34.699Z,101474.66
2022-08-30T19:06:05.292Z,101469.88
2022-08-30T19:08:36.015Z,101471.56
2022-08-30T19:11:07.449Z,101474.97
2022-08-30T19:13:35.539Z,101477.41
2022-08-30T19:16:03.883Z,101472.94
2022-08-30T19:18:32.708Z,101483.72
2022-08-30T19:21:00.739Z,101485.13
2022-08-30T19:23:34.234Z,101487.91
2022-08-30T19:26:02.095Z,101486.72
2022-08-30T19:28:30.447Z,101487.50
2022-08-30T19:30:58.088Z,101482.59
2022-08-30T19:33:25.710Z,101490.59
2022-08-30T19:35:53.933Z,101484.31
2022-08-30T19:38:21.703Z,101481.88
2022-08-30T19:40:54.537Z,101491.47
2022-08-30T19:43:22.647Z,101486.81
2022-08-30T19:45:54.324Z,101498.53
2022-08-30T19:48:22.456Z,101491.59
2022-08-30T19:50:50.308Z,101497.16
2022-08-30T19:53:18.155Z,101491.19
2022-08-30T19:55:45.900Z,101492.81
2022-08-30T19:58:15.640Z,101493.00
2022-08-30T20:00:54.478Z,101492.34
2022-08-30T20:03:28.639Z,101494.09
2022-08-30T20:05:57.606Z,101499.06
2022-08-30T20:08:25.286Z,101489.16
2022-08-30T20:10:53.248Z,101488.47
2022-08-30T20:13:23.987Z,101494.88
2022-08-30T20:15:55.865Z,101492.00
2022-08-30T20:18:25.895Z,101494.34
2022-08-30T20:20:54.132Z,101488.69
2022-08-30T20:23:23.843Z,101493.38
2022-08-30T20:25:54.321Z,101491.88
2022-08-30T20:28:24.589Z,101495.81
2022-08-30T20:30:52.630Z,101494.34
2022-08-30T20:33:21.089Z,101507.22
2022-08-30T20:35:49.842Z,101504.53
2022-08-30T20:38:21.115Z,101509.03
2022-08-30T20:40:51.215Z,101505.69
2022-08-30T20:43:19.314Z,101517.09
2022-08-30T20:45:49.006Z,101522.31
2022-08-30T20:48:17.368Z,101521.88
2022-08-30T20:50:45.439Z,101518.66
2022-08-30T20:53:13.243Z,101528.44
2022-08-30T20:55:42.343Z,101515.78
2022-08-30T20:58:09.923Z,101517.97
2022-08-30T21:00:37.667Z,101524.34
2022-08-30T21:03:25.606Z,101521.91
2022-08-30T21:05:55.171Z,101524.75
2022-08-30T21:08:22.855Z,101519.00
2022-08-30T21:10:50.483Z,101519.75
2022-08-30T21:13:18.268Z,101523.00
2022-08-30T21:15:46.301Z,101529.66
2022-08-30T21:18:15.478Z,101530.19
2022-08-30T21:20:43.206Z,101537.06
2022-08-30T21:23:11.224Z,101535.81
2022-08-30T21:25:39.350Z,101539.28
2022-08-30T21:28:07.370Z,101532.25
2022-08-30T21:30:35.581Z,101544.19
2022-08-30T21:33:03.516Z,101545.75
2022-08-30T21:35:50.445Z,101550.50
2022-08-30T21:38:18.984Z,101552.41
2022-08-30T21:40:48.272Z,101560.19
2022-08-30T21:43:16.134Z,101557.53
2022-08-30T21:45:44.980Z,101556.13
2022-08-30T21:48:14.221Z,101570.47
2022-08-30T21:50:44.706Z,101568.75
2022-08-30T21:53:15.070Z,101563.97
2022-08-30T21:55:43.834Z,101574.72
2022-08-30T21:58:11.886Z,101576.72
2022-08-30T22:00:39.471Z,101578.22
2022-08-30T22:03:07.164Z,101581.34
2022-08-30T22:05:34.792Z,101585.53
2022-08-30T22:08:04.310Z,101583.16
2022-08-30T22:10:33.390Z,101587.25
2022-08-30T22:13:01.236Z,101585.81
2022-08-30T22:15:28.958Z,101580.78
2022-08-30T22:17:57.118Z,101584.41
2022-08-30T22:20:24.875Z,101590.09
2022-08-30T22:22:55.144Z,101587.63
2022-08-30T22:25:24.124Z,101589.59
2022-08-30T22:27:52.002Z,101597.00
2022-08-30T22:30:19.746Z,101594.91
2022-08-30T22:32:47.598Z,101594.91
2022-08-30T22:35:15.963Z,101600.91
2022-08-30T22:37:47.579Z,101597.19
2022-08-30T22:40:16.064Z,101599.28
2022-08-30T22:42:48.229Z,101599.44
2022-08-30T22:45:16.325Z,101606.38
2022-08-30T22:47:43.920Z,101612.09
2022-08-30T22:50:13.101Z,101606.66
2022-08-30T22:52:41.012Z,101604.91
2022-08-30T22:55:09.042Z,101604.91
2022-08-30T22:57:37.159Z,101610.38
2022-08-30T23:00:11.201Z,101610.91
2022-08-30T23:02:38.966Z,101613.56
2022-08-30T23:05:07.367Z,101612.81
2022-08-30T23:07:35.157Z,101613.47
2022-08-30T23:10:05.746Z,101613.75
2022-08-30T23:12:36.747Z,101612.81
2022-08-30T23:15:06.493Z,101611.09
2022-08-30T23:17:39.637Z,101611.09
2022-08-30T23:20:08.836Z,101606.50
2022-08-30T23:22:36.559Z,101613.34
2022-08-30T23:25:22.698Z,101618.47
2022-08-30T23:28:10.894Z,101617.97
2022-08-30T23:30:57.434Z,101615.31
2022-08-30T23:33:42.678Z,101615.06
2022-08-30T23:36:30.597Z,101621.50
2022-08-30T23:39:16.386Z,101611.50
2022-08-30T23:42:01.869Z,101613.38
2022-08-30T23:44:47.074Z,101615.28
2022-08-30T23:47:33.768Z,101625.38
2022-08-30T23:50:19.022Z,101622.16
2022-08-30T23:53:04.362Z,101625.75
2022-08-30T23:55:49.887Z,101620.16
2022-08-30T23:58:35.509Z,101620.25
